METAR Data
IDs: Format: Raw Decoded Include TAF

Data at: 1959 UTC 23 Oct 2021

EDDP 231950Z 22004KT CAVOK 07/04 Q1030 NOSIG